Siirt Airport

LTCL · 锡尔特省, 土耳其

使用的METAR站距离机场64 km。
罗盘
风向 的 风向 030° Siirt Airport 6/24
风: 5 kt, 2 beaufort

4 kt

3 kt
改变
0 ft 2.000 4.000 6.000 8.000 10.000
Cloud Cloud Cloud Cloud
SCT 3.500
Cloud Cloud Cloud Cloud Cloud Cloud
BKN 9.000
METAR LTCJ 231720Z 03005KT 9999 SCT035 BKN090 07/06 Q1023 NOSIG RMK RWY20 36004KT 4CU035 7AC090

METAR Siirt Airport - LTCL/SXZ

Siirt Airport是,土耳其中的中型机场。 该机场位于纬度37,97890和经度41,84040。 该机场有一条跑道: 6/24. 本场的ICAO机场代码为LTCL。 该机场的IATA代码为SXZ。 机场在Ankara FIR中。

该航空气象观测是针对Batman Airport在2024年2月23日 20:20, 当地时间进行的。

机场观察

风向为030°,速度为5 kt。

可见度为10 km 或者更多。

有疏云,零星散落的云朵在3.500 ft的高度 和 碎云在9.000 ft的高度。 破损或更高的上限为9.000 ft。

温度为7 °C,阵风为4 °C。 露点为6 °C,相对湿度为93%。 海平面上的气压为1023 hPa (QNH)。

白天

今天,太阳从06:53升起,在17:58降落。 这适用于Siirt Airport,世界夏令时可能有所不同。 当地时间与世界标准时间之间的时差为+3 小时。 当前,没有夏令时有效。

公司介绍

我们没有关于这个机场的公司信息。

体会

到Vliegles.nl去找飞行课程,跳伞和其他飞行体验。 浏览页面,了解Siirt Airport附近所有可用的活动。 你也可以使用搜索功能来寻找你所在地附近的特定飞行课程、跳伞或其他飞行体验。

跑道

Id 标题 侧风 逆风 侧风 %
6/24 068°-248° 3 kt 4 kt 62 %

逆风成分最大的方向会被突出显示,并用于横风计算。 这并不一定意味着这个方向在使用。

乌云

3.500 ft SCT 疏云,零星散落的云朵
9.000 ft BKN 碎云

温度 & 天气

温度 7 °C
露点 6 °C
相对湿度 93%
风寒 4 °C
Kp-index 0 (0-9)

评论

RWY20 36004KT 4CU035 7AC090

白天

日出
06:55 (10:01)
中午
12:28
日落
18:01

小工具

你想在你的网站上有一个关于Siirt Airport的当前航空天气(METAR)的小部件吗?

显示HTML代码
?>